createdAt,value
2022-11-20T00:01:54.671Z,18.60
2022-11-20T00:04:21.159Z,18.60
2022-11-20T00:06:47.699Z,19.38
2022-11-20T00:09:14.139Z,23.33
2022-11-20T00:11:40.619Z,17.80
2022-11-20T00:14:07.033Z,17.08
2022-11-20T00:16:34.146Z,16.80
2022-11-20T00:19:00.574Z,17.80
2022-11-20T00:21:28.851Z,20.67
2022-11-20T00:23:56.840Z,17.10
2022-11-20T00:26:25.081Z,14.00
2022-11-20T00:28:56.504Z,17.75
2022-11-20T00:31:23.177Z,13.90
2022-11-20T00:33:49.914Z,14.02
2022-11-20T00:36:21.684Z,14.82
2022-11-20T00:41:16.732Z,12.57
2022-11-20T00:43:43.615Z,15.68
2022-11-20T00:46:21.263Z,17.55
2022-11-20T00:48:48.297Z,15.30
2022-11-20T00:51:17.338Z,17.85
2022-11-20T00:53:44.721Z,17.45
2022-11-20T00:56:14.389Z,23.90
2022-11-20T00:58:43.361Z,13.93
2022-11-20T01:01:21.356Z,16.73
2022-11-20T01:03:50.038Z,13.65
2022-11-20T01:06:18.349Z,24.10
2022-11-20T01:08:45.629Z,16.30
2022-11-20T01:11:16.970Z,16.65
2022-11-20T01:13:44.228Z,16.83
2022-11-20T01:16:19.609Z,18.75
2022-11-20T01:18:48.705Z,22.15
2022-11-20T01:21:24.026Z,16.27
2022-11-20T01:23:51.580Z,17.40
2022-11-20T01:26:20.745Z,18.80
2022-11-20T01:28:47.974Z,22.35
2022-11-20T01:31:16.858Z,22.98
2022-11-20T01:33:44.493Z,19.75
2022-11-20T01:36:12.203Z,15.80
2022-11-20T01:38:39.285Z,23.27
2022-11-20T01:41:07.072Z,19.38
2022-11-20T01:43:33.802Z,19.35
2022-11-20T01:46:14.317Z,21.58
2022-11-20T01:48:49.455Z,21.58
2022-11-20T01:51:42.070Z,23.55
2022-11-20T01:54:14.604Z,16.52
2022-11-20T01:56:45.056Z,20.05
2022-11-20T01:59:14.663Z,20.58
2022-11-20T02:01:41.187Z,21.52
2022-11-20T02:04:09.632Z,15.23
2022-11-20T02:06:49.830Z,14.82
2022-11-20T02:09:17.089Z,15.40
2022-11-20T02:11:43.551Z,16.70
2022-11-20T02:14:11.110Z,13.77
2022-11-20T02:16:41.277Z,15.75
2022-11-20T02:19:14.740Z,14.90
2022-11-20T02:21:52.899Z,18.95
2022-11-20T02:24:21.018Z,16.33
2022-11-20T02:27:05.995Z,16.45
2022-11-20T02:29:45.534Z,30.77
2022-11-20T02:32:23.159Z,22.92
2022-11-20T02:34:49.729Z,19.52
2022-11-20T02:37:16.651Z,16.67
2022-11-20T02:39:44.948Z,15.40
2022-11-20T02:42:11.338Z,21.50
2022-11-20T02:44:37.999Z,16.02
2022-11-20T02:47:04.547Z,15.23
2022-11-20T02:49:31.061Z,14.65
2022-11-20T02:51:57.623Z,12.93
2022-11-20T02:54:24.568Z,17.65
2022-11-20T02:56:51.032Z,17.45
2022-11-20T02:59:17.499Z,15.32
2022-11-20T03:01:43.909Z,16.58
2022-11-20T03:04:10.422Z,15.65
2022-11-20T03:06:37.021Z,14.40
2022-11-20T03:09:03.442Z,14.05
2022-11-20T03:11:29.860Z,17.75
2022-11-20T03:13:56.390Z,17.00
2022-11-20T03:16:24.106Z,16.92
2022-11-20T03:18:52.860Z,15.45
2022-11-20T03:21:19.398Z,18.90
2022-11-20T03:23:45.930Z,15.38
2022-11-20T03:26:18.301Z,15.57
2022-11-20T03:28:50.458Z,14.40
2022-11-20T03:31:18.988Z,19.38
2022-11-20T03:33:45.718Z,16.65
2022-11-20T03:36:14.203Z,15.80
2022-11-20T03:38:41.153Z,14.70
2022-11-20T03:41:13.411Z,19.15
2022-11-20T03:43:40.698Z,15.73
2022-11-20T03:46:08.430Z,11.85
2022-11-20T03:48:34.953Z,17.00
2022-11-20T03:51:16.826Z,14.73
2022-11-20T03:56:12.491Z,11.30
2022-11-20T03:58:40.569Z,16.05
2022-11-20T04:01:16.318Z,13.73
2022-11-20T04:03:43.796Z,18.10
2022-11-20T04:06:13.742Z,14.20
2022-11-20T04:08:41.344Z,15.23
2022-11-20T04:11:23.216Z,14.38
2022-11-20T04:16:18.116Z,11.25
2022-11-20T04:18:44.891Z,13.20
2022-11-20T04:21:12.187Z,14.85
2022-11-20T04:23:39.209Z,13.02
2022-11-20T04:26:10.137Z,13.15
2022-11-20T04:28:37.433Z,15.83
2022-11-20T04:31:10.722Z,12.98
2022-11-20T04:33:38.162Z,12.40
2022-11-20T04:36:07.768Z,15.60
2022-11-20T04:38:34.634Z,16.23
2022-11-20T04:41:03.198Z,12.70
2022-11-20T04:43:29.839Z,15.23
2022-11-20T04:45:57.803Z,12.73
2022-11-20T04:48:24.721Z,13.75
2022-11-20T04:50:51.601Z,12.07
2022-11-20T04:53:18.614Z,14.10
2022-11-20T04:55:45.643Z,17.75
2022-11-20T04:58:12.926Z,14.88
2022-11-20T05:00:39.573Z,15.05
2022-11-20T05:03:06.180Z,12.30
2022-11-20T05:05:33.920Z,16.30
2022-11-20T05:08:00.603Z,11.95
2022-11-20T05:10:28.119Z,15.27
2022-11-20T05:12:54.590Z,12.13
2022-11-20T05:15:21.094Z,11.05
2022-11-20T05:17:51.461Z,12.32
2022-11-20T05:20:18.266Z,14.35
2022-11-20T05:22:45.262Z,13.30
2022-11-20T05:25:12.675Z,17.00
2022-11-20T05:27:39.493Z,15.30
2022-11-20T05:30:06.691Z,11.75
2022-11-20T05:32:33.194Z,13.90
2022-11-20T05:34:59.570Z,14.15
2022-11-20T05:37:26.078Z,14.13
2022-11-20T05:39:52.502Z,12.23
2022-11-20T05:42:31.133Z,12.63
2022-11-20T05:45:02.435Z,13.07
2022-11-20T05:47:33.075Z,14.07
2022-11-20T05:49:59.797Z,13.63
2022-11-20T05:52:30.210Z,14.30
2022-11-20T05:54:56.911Z,18.52
2022-11-20T05:57:23.390Z,12.25
2022-11-20T05:59:49.844Z,13.85
2022-11-20T06:02:16.347Z,13.98
2022-11-20T06:04:42.970Z,11.25
2022-11-20T06:07:09.525Z,12.05
2022-11-20T06:09:36.065Z,16.65
2022-11-20T06:12:02.556Z,11.13
2022-11-20T06:14:29.031Z,13.07
2022-11-20T06:16:55.632Z,13.20
2022-11-20T06:19:22.322Z,14.88
2022-11-20T06:21:50.583Z,12.98
2022-11-20T06:24:18.034Z,13.32
2022-11-20T06:26:44.938Z,16.00
2022-11-20T06:29:11.565Z,14.40
2022-11-20T06:31:38.788Z,12.82
2022-11-20T06:34:07.131Z,15.35
2022-11-20T06:36:34.356Z,13.00
2022-11-20T06:39:01.226Z,13.43
2022-11-20T06:41:28.886Z,16.98
2022-11-20T06:43:55.717Z,11.82
2022-11-20T06:46:22.580Z,14.13
2022-11-20T06:48:50.514Z,13.70
2022-11-20T06:51:17.426Z,10.80
2022-11-20T06:53:44.063Z,12.02
2022-11-20T06:56:10.720Z,20.33
2022-11-20T06:58:37.749Z,13.02
2022-11-20T07:01:10.550Z,17.13
2022-11-20T07:03:37.686Z,13.82
2022-11-20T07:06:05.136Z,12.48
2022-11-20T07:08:31.554Z,14.20
2022-11-20T07:11:00.580Z,26.42
2022-11-20T07:13:28.622Z,36.20
2022-11-20T07:15:55.506Z,31.50
2022-11-20T07:18:22.114Z,23.23
2022-11-20T07:20:48.638Z,12.27
2022-11-20T07:23:15.108Z,14.40
2022-11-20T07:25:41.524Z,16.20
2022-11-20T07:28:07.975Z,14.80
2022-11-20T07:30:34.433Z,11.25
2022-11-20T07:33:00.895Z,15.60
2022-11-20T07:35:27.410Z,13.00
2022-11-20T07:37:53.883Z,13.80
2022-11-20T07:40:20.882Z,12.82
2022-11-20T07:42:51.426Z,13.85
2022-11-20T07:45:22.636Z,13.18
2022-11-20T07:47:49.163Z,18.38
2022-11-20T07:50:15.895Z,16.80
2022-11-20T07:52:42.330Z,19.45
2022-11-20T07:55:10.375Z,14.20
2022-11-20T07:57:36.846Z,33.63
2022-11-20T08:00:10.062Z,23.65
2022-11-20T08:02:40.639Z,23.05
2022-11-20T08:05:08.456Z,21.70
2022-11-20T08:07:39.986Z,22.35
2022-11-20T08:10:07.781Z,20.10
2022-11-20T08:12:52.790Z,21.95
2022-11-20T08:15:19.249Z,16.98
2022-11-20T08:18:02.013Z,17.67
2022-11-20T08:20:32.698Z,19.27
2022-11-20T08:23:04.794Z,19.20
2022-11-20T08:25:31.319Z,17.65
2022-11-20T08:28:00.567Z,19.85
2022-11-20T08:30:28.565Z,19.05
2022-11-20T08:32:55.869Z,16.52
2022-11-20T08:35:22.924Z,20.75
2022-11-20T08:37:49.606Z,18.60
2022-11-20T08:40:19.621Z,19.20
2022-11-20T08:42:55.538Z,15.00
2022-11-20T08:45:21.933Z,18.83
2022-11-20T08:47:48.392Z,18.77
2022-11-20T08:50:17.178Z,19.50
2022-11-20T08:52:43.915Z,17.48
2022-11-20T08:55:11.270Z,21.30
2022-11-20T08:57:40.634Z,20.10
2022-11-20T09:00:09.296Z,18.80
2022-11-20T09:02:36.265Z,24.45
2022-11-20T09:05:03.369Z,24.90
2022-11-20T09:07:31.289Z,17.80
2022-11-20T09:10:16.810Z,20.23
2022-11-20T09:12:44.187Z,18.33
2022-11-20T09:15:10.849Z,20.48
2022-11-20T09:17:37.288Z,21.80
2022-11-20T09:20:04.975Z,20.85
2022-11-20T09:22:31.353Z,22.98
2022-11-20T09:24:57.771Z,22.33
2022-11-20T09:27:24.450Z,21.90
2022-11-20T09:29:50.891Z,21.20
2022-11-20T09:32:17.444Z,22.02
2022-11-20T09:34:43.882Z,21.60
2022-11-20T09:37:10.334Z,26.20
2022-11-20T09:39:39.653Z,28.73
2022-11-20T09:42:21.106Z,24.38
2022-11-20T09:45:16.447Z,23.13
2022-11-20T09:48:02.575Z,26.48
2022-11-20T09:50:43.781Z,24.83
2022-11-20T09:53:13.455Z,34.72
2022-11-20T09:55:40.454Z,29.92
2022-11-20T09:58:13.209Z,24.40
2022-11-20T10:00:39.988Z,32.15
2022-11-20T10:03:18.235Z,26.58
2022-11-20T10:05:48.233Z,23.80
2022-11-20T10:08:26.091Z,26.13
2022-11-20T10:11:13.339Z,22.63
2022-11-20T10:13:58.388Z,30.05
2022-11-20T10:16:30.876Z,23.98
2022-11-20T10:19:02.943Z,27.08
2022-11-20T10:21:47.402Z,36.53
2022-11-20T10:24:34.965Z,26.85
2022-11-20T10:27:24.227Z,23.10
2022-11-20T10:30:03.838Z,23.73
2022-11-20T10:32:39.948Z,26.42
2022-11-20T10:35:28.005Z,21.08
2022-11-20T10:37:59.584Z,21.52
2022-11-20T10:40:39.174Z,19.92
2022-11-20T10:43:14.463Z,22.77
2022-11-20T10:45:56.809Z,22.92
2022-11-20T10:48:27.585Z,23.17
2022-11-20T10:51:10.100Z,26.33
2022-11-20T10:54:00.182Z,25.50
2022-11-20T10:56:35.822Z,28.90
2022-11-20T10:59:20.648Z,27.05
2022-11-20T11:01:47.231Z,27.05
2022-11-20T11:04:42.586Z,29.33
2022-11-20T11:07:18.841Z,22.58
2022-11-20T11:09:50.725Z,27.95
2022-11-20T11:14:49.282Z,28.88
2022-11-20T11:20:18.950Z,26.17
2022-11-20T11:22:51.615Z,25.40
2022-11-20T11:25:21.123Z,28.80
2022-11-20T11:27:49.216Z,26.10
2022-11-20T11:30:18.030Z,27.20
2022-11-20T11:32:44.709Z,30.40
2022-11-20T11:35:29.122Z,30.58
2022-11-20T11:38:05.330Z,27.45
2022-11-20T11:40:37.673Z,34.42
2022-11-20T11:43:28.108Z,36.42
2022-11-20T11:45:56.104Z,27.77
2022-11-20T11:48:23.126Z,30.30
2022-11-20T11:50:51.521Z,89.32
2022-11-20T11:53:20.730Z,34.63
2022-11-20T11:56:01.012Z,35.97
2022-11-20T11:58:35.398Z,33.67
2022-11-20T12:01:13.056Z,32.13
2022-11-20T12:03:42.425Z,30.73
2022-11-20T12:06:14.838Z,30.20
2022-11-20T12:08:52.657Z,29.90
2022-11-20T12:11:40.925Z,30.60
2022-11-20T12:14:34.414Z,30.48
2022-11-20T12:17:02.780Z,30.08
2022-11-20T12:19:37.095Z,29.13
2022-11-20T12:22:31.252Z,31.27
2022-11-20T12:25:07.576Z,25.33
2022-11-20T12:27:49.565Z,29.88
2022-11-20T12:33:05.288Z,27.67
2022-11-20T12:35:55.955Z,24.70
2022-11-20T12:38:22.303Z,28.65
2022-11-20T12:40:57.962Z,30.23
2022-11-20T12:43:46.673Z,25.42
2022-11-20T12:46:33.520Z,29.35
2022-11-20T12:49:14.586Z,25.58
2022-11-20T12:51:59.006Z,29.43
2022-11-20T12:54:28.115Z,29.80
2022-11-20T12:57:06.842Z,26.70
2022-11-20T13:00:15.115Z,26.58
2022-11-20T13:02:53.903Z,30.10
2022-11-20T13:05:38.093Z,30.15
2022-11-20T13:08:09.602Z,26.35
2022-11-20T13:10:48.174Z,29.40
2022-11-20T13:13:40.936Z,29.55
2022-11-20T13:16:33.527Z,27.42
2022-11-20T13:19:04.659Z,27.95
2022-11-20T13:21:47.141Z,31.50
2022-11-20T13:24:28.713Z,29.52
2022-11-20T13:27:09.317Z,29.67
2022-11-20T13:29:37.758Z,27.30
2022-11-20T13:32:14.191Z,28.42
2022-11-20T13:34:52.271Z,29.30
2022-11-20T13:37:37.055Z,33.05
2022-11-20T13:40:09.668Z,30.75
2022-11-20T13:42:40.564Z,29.67
2022-11-20T13:45:21.776Z,29.40
2022-11-20T13:47:50.363Z,33.58
2022-11-20T13:50:17.190Z,30.27
2022-11-20T13:52:56.531Z,28.98
2022-11-20T13:55:38.838Z,29.73
2022-11-20T13:58:13.981Z,33.30
2022-11-20T14:00:57.898Z,29.48
2022-11-20T14:03:58.509Z,30.63
2022-11-20T14:06:29.869Z,28.50
2022-11-20T14:08:57.009Z,26.58
2022-11-20T14:11:28.698Z,30.25
2022-11-20T14:14:04.328Z,28.85
2022-11-20T14:16:38.233Z,27.52
2022-11-20T14:19:28.770Z,29.38
2022-11-20T14:22:09.119Z,31.70
2022-11-20T14:24:35.894Z,31.75
2022-11-20T14:27:02.742Z,28.95
2022-11-20T14:29:37.627Z,32.60
2022-11-20T14:32:04.849Z,31.02
2022-11-20T14:34:36.593Z,26.98
2022-11-20T14:37:06.473Z,37.80
2022-11-20T14:39:36.635Z,28.95
2022-11-20T14:42:15.497Z,41.42
2022-11-20T14:44:43.108Z,29.90
2022-11-20T14:47:13.093Z,28.80
2022-11-20T14:49:40.480Z,30.55
2022-11-20T14:52:22.830Z,34.33
2022-11-20T14:54:52.058Z,33.22
2022-11-20T14:57:30.156Z,36.00
2022-11-20T15:00:15.048Z,30.70
2022-11-20T15:02:46.771Z,31.17
2022-11-20T15:05:14.478Z,33.13
2022-11-20T15:07:46.708Z,33.38
2022-11-20T15:10:24.485Z,34.38
2022-11-20T15:13:02.589Z,36.65
2022-11-20T15:15:34.454Z,39.55
2022-11-20T15:20:30.928Z,36.22
2022-11-20T15:22:57.429Z,34.05
2022-11-20T15:25:25.509Z,31.30
2022-11-20T15:28:00.979Z,31.77
2022-11-20T15:30:27.436Z,46.65
2022-11-20T15:32:53.874Z,47.40
2022-11-20T15:35:20.407Z,40.80
2022-11-20T15:37:46.923Z,34.35
2022-11-20T15:40:13.833Z,38.83
2022-11-20T15:43:00.332Z,36.58
2022-11-20T15:45:29.268Z,35.00
2022-11-20T15:47:55.735Z,39.83
2022-11-20T15:50:24.043Z,37.90
2022-11-20T15:52:50.454Z,32.97
2022-11-20T15:55:16.901Z,30.42
2022-11-20T15:57:43.311Z,38.13
2022-11-20T16:00:10.470Z,32.08
2022-11-20T16:02:39.839Z,28.33
2022-11-20T16:05:12.381Z,39.08
2022-11-20T16:07:38.863Z,33.33
2022-11-20T16:10:05.697Z,34.50
2022-11-20T16:12:50.687Z,36.70
2022-11-20T16:15:35.985Z,32.30
2022-11-20T16:18:02.396Z,33.05
2022-11-20T16:20:28.788Z,31.08
2022-11-20T16:22:55.259Z,35.28
2022-11-20T16:25:21.716Z,32.47
2022-11-20T16:27:48.150Z,37.47
2022-11-20T16:30:14.833Z,36.72
2022-11-20T16:32:41.246Z,34.92
2022-11-20T16:35:08.390Z,40.45
2022-11-20T16:37:34.823Z,38.65
2022-11-20T16:40:01.270Z,35.28
2022-11-20T16:42:27.674Z,29.83
2022-11-20T16:44:54.151Z,33.22
2022-11-20T16:47:20.582Z,30.50
2022-11-20T16:49:47.024Z,33.25
2022-11-20T16:52:13.425Z,28.33
2022-11-20T16:54:39.795Z,28.85
2022-11-20T16:57:06.313Z,31.08
2022-11-20T16:59:32.689Z,33.17
2022-11-20T17:01:59.107Z,32.70
2022-11-20T17:04:25.948Z,32.92
2022-11-20T17:06:52.707Z,30.60
2022-11-20T17:09:19.359Z,34.78
2022-11-20T17:11:45.830Z,30.77
2022-11-20T17:14:12.533Z,27.25
2022-11-20T17:16:39.262Z,33.65
2022-11-20T17:19:06.030Z,36.28
2022-11-20T17:21:33.500Z,30.50
2022-11-20T17:24:03.136Z,32.92
2022-11-20T17:26:30.076Z,32.75
2022-11-20T17:29:02.204Z,30.85
2022-11-20T17:31:30.679Z,31.05
2022-11-20T17:34:00.157Z,31.10
2022-11-20T17:36:27.450Z,38.28
2022-11-20T17:38:54.124Z,31.70
2022-11-20T17:41:25.404Z,35.25
2022-11-20T17:43:59.017Z,40.05
2022-11-20T17:46:28.196Z,30.15
2022-11-20T17:48:55.800Z,33.33
2022-11-20T17:51:25.406Z,30.83
2022-11-20T17:53:54.278Z,31.00
2022-11-20T17:56:39.500Z,33.25
2022-11-20T17:59:07.843Z,33.10
2022-11-20T18:01:34.978Z,36.47
2022-11-20T18:04:02.796Z,34.92
2022-11-20T18:06:30.296Z,36.97
2022-11-20T18:09:00.944Z,29.67
2022-11-20T18:11:29.605Z,30.95
2022-11-20T18:14:17.364Z,31.70
2022-11-20T18:16:50.022Z,34.17
2022-11-20T18:19:19.596Z,30.40
2022-11-20T18:21:46.172Z,30.73
2022-11-20T18:24:12.657Z,26.65
2022-11-20T18:26:44.084Z,28.05
2022-11-20T18:29:12.682Z,31.45
2022-11-20T18:31:39.460Z,26.63
2022-11-20T18:34:06.755Z,28.60
2022-11-20T18:36:33.347Z,29.20
2022-11-20T18:39:01.546Z,34.13
2022-11-20T18:41:49.102Z,31.80
2022-11-20T18:44:40.011Z,28.58
2022-11-20T18:47:14.129Z,27.48
2022-11-20T18:49:50.897Z,29.55
2022-11-20T18:52:23.069Z,31.15
2022-11-20T18:57:18.314Z,26.13
2022-11-20T18:59:45.127Z,28.77
2022-11-20T19:02:17.455Z,27.42
2022-11-20T19:04:44.078Z,33.78
2022-11-20T19:07:13.925Z,30.13
2022-11-20T19:09:45.395Z,31.65
2022-11-20T19:12:12.959Z,31.40
2022-11-20T19:14:39.490Z,31.65
2022-11-20T19:17:07.174Z,31.50
2022-11-20T19:19:34.846Z,28.38
2022-11-20T19:22:01.288Z,36.42
2022-11-20T19:24:28.373Z,30.10
2022-11-20T19:26:58.280Z,34.42
2022-11-20T19:29:25.428Z,33.97
2022-11-20T19:31:52.343Z,31.45
2022-11-20T19:34:18.874Z,27.30
2022-11-20T19:36:45.399Z,29.50
2022-11-20T19:39:12.509Z,29.30
2022-11-20T19:41:40.499Z,30.63
2022-11-20T19:44:12.493Z,33.30
2022-11-20T19:46:40.037Z,32.08
2022-11-20T19:49:10.056Z,30.33
2022-11-20T19:51:39.082Z,27.52
2022-11-20T19:54:06.347Z,29.13
2022-11-20T19:56:34.078Z,30.02
2022-11-20T19:59:01.380Z,30.83
2022-11-20T20:01:30.043Z,31.77
2022-11-20T20:04:01.286Z,29.13
2022-11-20T20:06:28.572Z,29.98
2022-11-20T20:08:57.232Z,28.77
2022-11-20T20:11:25.875Z,31.52
2022-11-20T20:13:53.354Z,37.33
2022-11-20T20:16:22.766Z,36.17
2022-11-20T20:18:49.347Z,32.17
2022-11-20T20:21:18.559Z,35.45
2022-11-20T20:23:49.243Z,28.95
2022-11-20T20:26:15.630Z,28.75
2022-11-20T20:28:42.081Z,30.05
2022-11-20T20:31:17.417Z,29.98
2022-11-20T20:33:44.494Z,26.58
2022-11-20T20:36:12.979Z,30.05
2022-11-20T20:38:39.583Z,32.80
2022-11-20T20:41:06.051Z,33.25
2022-11-20T20:43:52.470Z,28.95
2022-11-20T20:46:19.298Z,33.83
2022-11-20T20:48:49.102Z,34.45
2022-11-20T20:51:19.530Z,33.78
2022-11-20T20:53:46.206Z,34.10
2022-11-20T20:56:12.882Z,39.20
2022-11-20T20:58:40.434Z,34.47
2022-11-20T21:01:09.384Z,37.25
2022-11-20T21:03:36.937Z,38.40
2022-11-20T21:06:05.240Z,40.60
2022-11-20T21:08:31.877Z,32.15
2022-11-20T21:11:03.018Z,34.63
2022-11-20T21:13:30.439Z,33.88
2022-11-20T21:15:57.191Z,34.30
2022-11-20T21:18:24.222Z,32.88
2022-11-20T21:21:09.774Z,31.65
2022-11-20T21:23:36.909Z,32.38
2022-11-20T21:26:08.774Z,36.22
2022-11-20T21:31:04.898Z,32.08
2022-11-20T21:33:42.404Z,30.50
2022-11-20T21:36:10.334Z,30.75
2022-11-20T21:38:36.801Z,31.77
2022-11-20T21:41:05.430Z,35.17
2022-11-20T21:43:31.965Z,33.05
2022-11-20T21:46:07.652Z,33.45
2022-11-20T21:48:36.077Z,32.78
2022-11-20T21:51:10.051Z,35.25
2022-11-20T21:53:37.054Z,30.88
2022-11-20T21:56:05.418Z,34.45
2022-11-20T21:58:32.316Z,35.03
2022-11-20T22:00:58.849Z,36.13
2022-11-20T22:03:25.533Z,31.80
2022-11-20T22:05:58.955Z,36.65
2022-11-20T22:08:26.326Z,35.60
2022-11-20T22:11:01.660Z,35.58
2022-11-20T22:13:47.841Z,37.20
2022-11-20T22:16:14.936Z,36.65
2022-11-20T22:18:45.244Z,37.17
2022-11-20T22:21:12.877Z,37.13
2022-11-20T22:23:39.900Z,39.33
2022-11-20T22:26:12.001Z,35.35
2022-11-20T22:28:39.399Z,40.55
2022-11-20T22:31:08.594Z,34.92
2022-11-20T22:33:36.661Z,35.67
2022-11-20T22:36:08.871Z,35.67
2022-11-20T22:38:39.497Z,34.70
2022-11-20T22:41:12.069Z,32.35
2022-11-20T22:43:39.478Z,31.85
2022-11-20T22:46:08.765Z,29.92
2022-11-20T22:48:36.718Z,32.58
2022-11-20T22:51:07.377Z,38.22
2022-11-20T22:53:34.514Z,40.97
2022-11-20T22:56:02.079Z,32.47
2022-11-20T22:58:32.966Z,40.08
2022-11-20T23:01:07.845Z,42.95
2022-11-20T23:03:34.577Z,39.58
2022-11-20T23:06:01.671Z,40.33
2022-11-20T23:08:28.827Z,38.80
2022-11-20T23:11:06.309Z,43.50
2022-11-20T23:13:33.151Z,38.33
2022-11-20T23:16:08.586Z,38.75
2022-11-20T23:18:36.110Z,38.75
2022-11-20T23:21:11.201Z,37.42
2022-11-20T23:23:38.275Z,38.90
2022-11-20T23:26:07.137Z,39.35
2022-11-20T23:28:34.006Z,34.08
2022-11-20T23:31:01.008Z,35.45
2022-11-20T23:33:27.506Z,35.33
2022-11-20T23:35:54.158Z,38.28
2022-11-20T23:38:20.869Z,38.67
2022-11-20T23:40:48.711Z,36.88
2022-11-20T23:43:16.638Z,35.28
2022-11-20T23:45:44.188Z,32.80
2022-11-20T23:48:12.427Z,37.88
2022-11-20T23:50:39.071Z,35.15
2022-11-20T23:53:05.990Z,33.85
2022-11-20T23:55:33.325Z,36.47
2022-11-20T23:57:59.771Z,34.55
